Time;durP1;ratioP1;P1;durP2;ratioP2;P2;SDS_P1;SDS_P2;PMS_P1;PMS_P2;Temp;Humidity;BMP_temperature;BMP_pressure;BME280_temperature;BME280_humidity;BME280_pressure;Samples;Min_cycle;Max_cycle;Signal;HPM_P1;HPM_P2
2023/08/06 00:00:22;;;;;;;11.35;3.92;;;;;;;14.93;100.00;100198.81;5030946;28;20010;-77
2023/08/06 00:02:47;;;;;;;12.07;4.03;;;;;;;14.94;100.00;100189.69;5038052;28;20042;-78
2023/08/06 00:05:13;;;;;;;11.25;4.13;;;;;;;14.93;100.00;100185.28;5044334;28;20026;-76
2023/08/06 00:07:38;;;;;;;13.68;4.32;;;;;;;14.94;100.00;100184.28;5030757;28;20098;-78
2023/08/06 00:10:05;;;;;;;11.15;3.72;;;;;;;14.94;100.00;100192.41;5038290;28;20022;-77
2023/08/06 00:12:30;;;;;;;12.05;3.78;;;;;;;14.94;100.00;100191.56;5041863;28;20025;-77
2023/08/06 00:14:55;;;;;;;9.40;3.53;;;;;;;14.92;100.00;100189.03;5038529;28;20040;-78
2023/08/06 00:17:21;;;;;;;14.02;4.07;;;;;;;14.93;100.00;100184.44;5037978;28;20065;-76
2023/08/06 00:19:46;;;;;;;10.55;3.35;;;;;;;14.94;100.00;100187.00;5035794;28;20037;-77
2023/08/06 00:22:11;;;;;;;12.10;4.03;;;;;;;14.96;100.00;100176.00;5027608;28;20073;-76
2023/08/06 00:24:37;;;;;;;12.88;3.83;;;;;;;14.95;100.00;100171.59;5029967;28;20026;-78
2023/08/06 00:27:02;;;;;;;9.20;3.40;;;;;;;14.97;100.00;100170.44;5027472;28;20030;-77
2023/08/06 00:29:28;;;;;;;11.40;4.00;;;;;;;14.97;100.00;100172.31;5032820;28;20016;-77
2023/08/06 00:31:53;;;;;;;13.95;4.60;;;;;;;14.97;100.00;100170.44;5034650;28;20057;-76
2023/08/06 00:34:19;;;;;;;11.52;3.65;;;;;;;14.98;100.00;100176.72;5038863;28;20041;-77
2023/08/06 00:36:44;;;;;;;13.55;3.85;;;;;;;14.98;100.00;100177.56;5033363;28;20042;-78
2023/08/06 00:39:09;;;;;;;11.07;3.30;;;;;;;14.99;100.00;100175.69;5035904;28;20038;-77
2023/08/06 00:41:35;;;;;;;11.20;3.58;;;;;;;14.98;100.00;100166.75;5029290;28;20038;-78
2023/08/06 00:44:00;;;;;;;10.40;3.65;;;;;;;14.97;100.00;100173.16;5027656;28;20038;-78
2023/08/06 00:46:27;;;;;;;12.43;4.03;;;;;;;14.97;100.00;100183.97;5031373;28;20030;-78
2023/08/06 00:48:52;;;;;;;11.43;3.85;;;;;;;14.96;100.00;100178.72;5037567;28;20030;-76
2023/08/06 00:51:19;;;;;;;10.18;3.95;;;;;;;14.95;100.00;100169.78;5030377;28;20030;-76
2023/08/06 00:53:45;;;;;;;9.75;3.75;;;;;;;14.96;100.00;100171.44;5018344;28;20069;-81
2023/08/06 00:56:11;;;;;;;11.27;4.00;;;;;;;14.93;100.00;100160.09;5010713;28;20030;-81
2023/08/06 00:58:36;;;;;;;11.88;3.85;;;;;;;14.91;100.00;100171.09;5002100;28;20030;-81
2023/08/06 01:01:02;;;;;;;11.77;3.88;;;;;;;14.91;100.00;100176.50;5002184;28;20152;-78
2023/08/06 01:03:28;;;;;;;13.00;3.58;;;;;;;14.88;100.00;100171.41;4988934;28;20037;-78
2023/08/06 01:05:54;;;;;;;11.00;3.90;;;;;;;14.89;100.00;100162.28;5014790;28;20481;-78
2023/08/06 01:08:43;;;;;;;12.80;3.58;;;;;;;14.88;100.00;100160.59;5011318;28;20057;-78
2023/08/06 01:11:27;;;;;;;9.82;3.67;;;;;;;14.88;100.00;100157.03;5014692;28;20030;-78
2023/08/06 01:14:02;;;;;;;10.77;3.90;;;;;;;14.86;100.00;100167.97;5013791;28;20038;-78
2023/08/06 01:16:30;;;;;;;11.80;3.50;;;;;;;14.84;100.00;100157.31;5015085;28;20092;-78
2023/08/06 01:18:58;;;;;;;11.02;3.67;;;;;;;14.84;100.00;100164.59;5014781;28;20037;-78
2023/08/06 01:21:23;;;;;;;11.25;3.95;;;;;;;14.83;100.00;100158.34;5019282;28;20084;-78
2023/08/06 01:23:48;;;;;;;11.13;3.50;;;;;;;14.82;100.00;100153.94;5010700;28;20034;-78
2023/08/06 01:26:29;;;;;;;12.85;4.00;;;;;;;14.83;100.00;100163.75;5010118;28;20486;-78
2023/08/06 01:29:13;;;;;;;13.30;3.63;;;;;;;14.81;100.00;100170.31;5021712;28;20208;-78
2023/08/06 01:31:41;;;;;;;11.52;3.95;;;;;;;14.79;100.00;100162.38;5007268;28;20093;-78
2023/08/06 01:34:13;;;;;;;13.77;3.88;;;;;;;14.80;100.00;100168.63;5008442;28;20037;-78
2023/08/06 01:36:39;;;;;;;14.32;4.10;;;;;;;14.78;100.00;100159.81;5000400;28;20030;-78
2023/08/06 01:39:05;;;;;;;13.98;4.20;;;;;;;14.77;100.00;100161.66;5017213;28;20030;-78
2023/08/06 01:41:30;;;;;;;12.07;3.45;;;;;;;14.75;100.00;100160.13;5005504;28;20097;-78
2023/08/06 01:43:56;;;;;;;10.57;3.30;;;;;;;14.72;100.00;100157.75;5010967;28;20057;-78
2023/08/06 01:46:21;;;;;;;9.60;3.40;;;;;;;14.73;100.00;100157.59;5016701;28;20405;-78
2023/08/06 01:48:46;;;;;;;12.85;4.30;;;;;;;14.73;100.00;100156.72;5015935;28;20363;-78
2023/08/06 01:51:12;;;;;;;10.45;3.20;;;;;;;14.72;100.00;100155.88;5012704;28;20040;-78
2023/08/06 01:53:37;;;;;;;9.45;3.55;;;;;;;14.71;100.00;100162.28;5018073;28;20049;-78
2023/08/06 01:56:03;;;;;;;13.05;3.63;;;;;;;14.70;100.00;100147.09;5010331;28;20025;-78
2023/08/06 01:58:28;;;;;;;10.20;3.33;;;;;;;14.67;100.00;100153.66;5005310;28;20056;-78
2023/08/06 02:00:53;;;;;;;9.52;2.90;;;;;;;14.65;100.00;100149.41;5007241;28;20501;-78
2023/08/06 02:03:18;;;;;;;12.63;3.40;;;;;;;14.61;100.00;100154.28;5015925;28;20033;-78
2023/08/06 02:05:45;;;;;;;8.55;2.90;;;;;;;14.59;100.00;100150.84;5032938;28;20027;-76
2023/08/06 02:08:10;;;;;;;11.95;3.42;;;;;;;14.56;100.00;100156.56;5024110;28;20037;-78
2023/08/06 02:10:36;;;;;;;9.18;3.22;;;;;;;14.54;100.00;100160.41;5024571;28;20042;-78
2023/08/06 02:13:01;;;;;;;8.57;3.30;;;;;;;14.51;100.00;100164.31;5027829;28;20018;-77
2023/08/06 02:15:26;;;;;;;13.50;3.55;;;;;;;14.47;100.00;100165.63;5037885;28;20022;-78
2023/08/06 02:17:52;;;;;;;11.50;3.15;;;;;;;14.48;100.00;100170.00;5031366;28;20068;-78
2023/08/06 02:20:17;;;;;;;9.57;3.33;;;;;;;14.45;100.00;100162.19;5031256;28;20026;-76
2023/08/06 02:22:42;;;;;;;11.13;3.53;;;;;;;14.43;100.00;100161.50;5031903;28;20068;-77
2023/08/06 02:25:08;;;;;;;10.23;3.35;;;;;;;14.44;100.00;100160.53;5033798;28;20093;-76
2023/08/06 02:27:33;;;;;;;9.90;3.20;;;;;;;14.44;100.00;100163.22;5028362;28;20030;-78
2023/08/06 02:29:58;;;;;;;7.43;3.08;;;;;;;14.44;100.00;100168.63;5031319;28;20046;-77
2023/08/06 02:32:24;;;;;;;10.02;3.60;;;;;;;14.43;100.00;100156.09;5034476;28;20014;-76
2023/08/06 02:34:49;;;;;;;9.77;3.22;;;;;;;14.43;100.00;100162.34;5030949;28;20030;-76
2023/08/06 02:37:14;;;;;;;10.65;3.10;;;;;;;14.44;100.00;100158.66;5033442;28;20062;-78
2023/08/06 02:39:40;;;;;;;13.80;3.80;;;;;;;14.44;100.00;100163.22;5025445;28;20045;-77
2023/08/06 02:42:09;;;;;;;11.27;3.53;;;;;;;14.43;100.00;100161.50;5030477;28;20026;-77
2023/08/06 02:44:35;;;;;;;12.95;3.90;;;;;;;14.45;100.00;100160.38;5037749;28;20042;-78
2023/08/06 02:47:01;;;;;;;9.90;3.08;;;;;;;14.45;100.00;100154.09;5031628;28;20033;-77
2023/08/06 02:49:26;;;;;;;12.30;3.95;;;;;;;14.45;100.00;100160.38;5038031;28;20010;-77
2023/08/06 02:51:52;;;;;;;9.02;3.47;;;;;;;14.46;100.00;100151.22;5027717;28;20034;-77
2023/08/06 02:54:18;;;;;;;12.38;4.00;;;;;;;14.47;100.00;100155.63;5038736;28;20014;-77
2023/08/06 02:56:47;;;;;;;12.07;3.42;;;;;;;14.49;100.00;100150.06;5040510;28;20006;-78
2023/08/06 02:59:13;;;;;;;12.02;4.00;;;;;;;14.49;100.00;100148.25;5033185;28;20045;-77
2023/08/06 03:01:39;;;;;;;14.75;3.95;;;;;;;14.49;100.00;100147.38;5030479;28;20026;-78
2023/08/06 03:04:04;;;;;;;15.65;3.95;;;;;;;14.49;100.00;100150.94;5034651;28;20020;-77
2023/08/06 03:06:30;;;;;;;12.43;4.20;;;;;;;14.50;100.00;100151.78;5030091;28;20042;-76
2023/08/06 03:08:55;;;;;;;11.05;4.05;;;;;;;14.50;100.00;100147.22;5039847;28;20018;-76
2023/08/06 03:11:20;;;;;;;10.95;3.67;;;;;;;14.50;100.00;100146.38;5036122;28;20053;-77
2023/08/06 03:13:47;;;;;;;14.63;4.50;;;;;;;14.51;100.00;100153.50;5028474;28;20033;-78
2023/08/06 03:16:12;;;;;;;12.32;3.80;;;;;;;14.50;100.00;100151.78;5033754;28;20007;-78
2023/08/06 03:18:38;;;;;;;8.77;3.53;;;;;;;14.51;100.00;100153.50;5029353;28;20018;-78
2023/08/06 03:21:03;;;;;;;11.15;3.63;;;;;;;14.51;100.00;100153.50;5038958;28;20021;-77
2023/08/06 03:23:28;;;;;;;14.95;3.63;;;;;;;14.50;100.00;100151.78;5037456;28;20033;-77
2023/08/06 03:25:53;;;;;;;12.15;3.47;;;;;;;14.52;100.00;100157.88;5032682;28;20049;-77
2023/08/06 03:28:19;;;;;;;12.50;4.05;;;;;;;14.53;100.00;100156.88;5039413;28;20060;-78
2023/08/06 03:30:45;;;;;;;11.25;3.55;;;;;;;14.53;100.00;100156.88;5034276;28;20053;-77
2023/08/06 03:33:10;;;;;;;11.80;3.95;;;;;;;14.56;100.00;100158.44;5037138;28;20037;-78
2023/08/06 03:35:36;;;;;;;14.00;3.85;;;;;;;14.56;100.00;100161.97;5034069;28;20025;-77
2023/08/06 03:38:01;;;;;;;14.13;4.50;;;;;;;14.56;100.00;100161.97;5039369;28;20023;-76
2023/08/06 03:40:26;;;;;;;12.05;4.13;;;;;;;14.57;100.00;100157.41;5037060;28;20007;-78
2023/08/06 03:42:51;;;;;;;13.63;4.63;;;;;;;14.58;100.00;100167.22;5034566;28;20042;-76
2023/08/06 03:45:17;;;;;;;14.30;4.28;;;;;;;14.59;100.00;100161.66;5029194;28;20006;-78
2023/08/06 03:47:42;;;;;;;15.23;4.22;;;;;;;14.58;100.00;100157.25;5031322;28;20031;-78
2023/08/06 03:50:08;;;;;;;13.70;4.45;;;;;;;14.60;100.00;100163.38;5033166;28;20021;-78
2023/08/06 03:52:33;;;;;;;11.63;4.07;;;;;;;14.60;100.00;100157.97;5030813;28;20060;-77
2023/08/06 03:54:58;;;;;;;14.60;4.22;;;;;;;14.59;100.00;100158.94;5027750;28;20068;-76
2023/08/06 03:57:24;;;;;;;13.32;3.88;;;;;;;14.57;100.00;100158.28;5037998;28;20042;-78
2023/08/06 03:59:49;;;;;;;10.57;3.47;;;;;;;14.58;100.00;100164.50;5030835;28;20011;-78
2023/08/06 04:02:14;;;;;;;11.65;4.18;;;;;;;14.56;100.00;100166.53;5032151;28;20049;-78
2023/08/06 04:04:40;;;;;;;11.73;3.80;;;;;;;14.57;100.00;100169.09;5037409;28;20029;-78
2023/08/06 04:07:05;;;;;;;12.80;4.05;;;;;;;14.56;100.00;100170.09;5034345;28;20239;-77
2023/08/06 04:09:30;;;;;;;14.35;4.03;;;;;;;14.52;100.00;100174.09;5033757;28;20021;-78
2023/08/06 04:11:58;;;;;;;12.57;4.25;;;;;;;14.50;100.00;100163.44;5023042;28;20141;-78
2023/08/06 04:14:23;;;;;;;9.88;3.95;;;;;;;14.49;100.00;100180.69;5036529;28;20033;-78
2023/08/06 04:16:48;;;;;;;11.30;4.22;;;;;;;14.48;100.00;100175.41;5037921;28;20017;-77
2023/08/06 04:19:14;;;;;;;14.27;4.07;;;;;;;14.44;100.00;100166.75;5027882;28;20034;-78
2023/08/06 04:21:39;;;;;;;14.43;4.25;;;;;;;14.43;100.00;100178.56;5047021;28;20034;-78
2023/08/06 04:24:04;;;;;;;11.88;3.63;;;;;;;14.44;100.00;100180.28;5036652;28;20081;-77
2023/08/06 04:26:30;;;;;;;10.70;3.95;;;;;;;14.42;100.00;100176.03;5038812;28;20041;-77
2023/08/06 04:28:55;;;;;;;13.90;4.00;;;;;;;14.41;100.00;100175.19;5038150;28;20081;-78
2023/08/06 04:31:21;;;;;;;12.60;3.90;;;;;;;14.40;100.00;100181.59;5033803;28;20097;-77
2023/08/06 04:33:46;;;;;;;11.85;3.72;;;;;;;14.42;100.00;100186.84;5031958;28;20014;-78
2023/08/06 04:36:12;;;;;;;12.15;4.10;;;;;;;14.41;100.00;100186.00;5030325;28;20026;-77
2023/08/06 04:38:38;;;;;;;13.18;4.53;;;;;;;14.42;100.00;100182.31;5032412;28;20010;-77
2023/08/06 04:41:04;;;;;;;12.55;4.28;;;;;;;14.45;100.00;100191.94;5029440;28;20030;-76
2023/08/06 04:43:29;;;;;;;14.90;4.90;;;;;;;14.46;100.00;100193.66;5030171;28;20022;-78
2023/08/06 04:45:55;;;;;;;12.35;4.55;;;;;;;14.45;100.00;100191.94;5036641;28;20037;-77
2023/08/06 04:48:22;;;;;;;12.35;4.85;;;;;;;14.45;100.00;100198.22;5033962;28;20025;-78
2023/08/06 04:50:50;;;;;;;17.95;6.00;;;;;;;14.45;100.00;100197.34;5027769;28;20022;-77
2023/08/06 04:53:16;;;;;;;13.60;4.53;;;;;;;14.48;100.00;100199.75;5033667;28;20276;-78
2023/08/06 04:55:41;;;;;;;17.92;5.22;;;;;;;14.52;100.00;100198.44;5028968;28;20056;-78
2023/08/06 04:58:08;;;;;;;13.73;4.88;;;;;;;14.54;100.00;100198.28;5030297;28;20022;-78
2023/08/06 05:00:34;;;;;;;14.75;4.80;;;;;;;14.55;100.00;100198.13;5034024;28;20018;-78
2023/08/06 05:03:00;;;;;;;16.05;5.35;;;;;;;14.58;100.00;100205.09;5034280;28;20045;-77
2023/08/06 05:05:25;;;;;;;16.00;5.40;;;;;;;14.59;100.00;100202.22;5028034;28;20110;-77
2023/08/06 05:07:51;;;;;;;15.25;5.22;;;;;;;14.60;100.00;100203.94;5032880;28;20014;-76
2023/08/06 05:10:16;;;;;;;19.38;6.22;;;;;;;14.62;100.00;100210.06;5032625;28;20002;-78
2023/08/06 05:12:42;;;;;;;18.17;5.68;;;;;;;14.63;100.00;100205.50;5027336;28;20070;-78
2023/08/06 05:15:07;;;;;;;19.10;5.80;;;;;;;14.64;100.00;100213.47;5032370;28;20033;-78
2023/08/06 05:17:33;;;;;;;20.80;6.35;;;;;;;14.68;100.00;100216.69;5030721;28;20068;-78
2023/08/06 05:19:59;;;;;;;17.05;5.97;;;;;;;14.71;100.00;100218.25;5031882;28;20033;-77
2023/08/06 05:22:25;;;;;;;15.52;5.75;;;;;;;14.71;100.00;100221.78;5027272;28;20030;-78
2023/08/06 05:24:50;;;;;;;15.32;5.63;;;;;;;14.73;100.00;100230.63;5026799;28;20054;-76
2023/08/06 05:27:15;;;;;;;17.77;5.65;;;;;;;14.75;100.00;100231.31;5033056;28;20040;-78
2023/08/06 05:29:41;;;;;;;14.95;5.68;;;;;;;14.77;100.00;100228.44;5028354;28;20020;-76
2023/08/06 05:32:06;;;;;;;18.42;6.50;;;;;;;14.79;100.00;100231.88;5028923;28;20038;-78
2023/08/06 05:34:32;;;;;;;15.48;6.05;;;;;;;14.83;100.00;100230.53;5024988;28;20073;-78
2023/08/06 05:36:57;;;;;;;15.93;6.15;;;;;;;14.84;100.00;100234.94;5029050;28;20026;-78
2023/08/06 05:39:22;;;;;;;18.40;6.07;;;;;;;14.85;100.00;100239.34;5029447;28;20037;-77
2023/08/06 05:41:48;;;;;;;17.30;6.40;;;;;;;14.87;100.00;100245.44;5030619;28;20011;-77
2023/08/06 05:44:13;;;;;;;17.42;6.15;;;;;;;14.90;100.00;100244.28;5032337;28;20010;-78
2023/08/06 05:46:38;;;;;;;16.77;6.00;;;;;;;14.91;100.00;100252.25;5026002;28;20017;-78
2023/08/06 05:49:04;;;;;;;16.42;6.18;;;;;;;14.93;100.00;100261.06;5029282;28;20037;-78
2023/08/06 05:51:30;;;;;;;18.55;6.13;;;;;;;14.94;100.00;100262.75;5037633;28;20026;-77
2023/08/06 05:53:55;;;;;;;15.88;5.82;;;;;;;14.97;100.00;100270.56;5029511;28;20492;-79
2023/08/06 05:56:21;;;;;;;18.08;5.78;;;;;;;14.96;100.00;100263.44;5006363;28;20073;-79
2023/08/06 05:58:47;;;;;;;17.75;6.28;;;;;;;14.98;100.00;100268.72;5002679;28;20072;-79
2023/08/06 06:01:12;;;;;;;17.88;6.32;;;;;;;14.98;100.00;100269.56;5014571;28;20367;-79
2023/08/06 06:03:38;;;;;;;18.95;6.80;;;;;;;14.99;100.00;100273.13;5011080;28;20101;-79
2023/08/06 06:06:03;;;;;;;19.85;5.95;;;;;;;15.00;100.00;100275.66;5007953;28;20026;-79
2023/08/06 06:08:28;;;;;;;15.93;5.72;;;;;;;15.02;100.00;100284.50;4998872;28;20066;-79
2023/08/06 06:10:54;;;;;;;17.75;6.22;;;;;;;15.03;100.00;100282.63;5001808;28;20459;-79
2023/08/06 06:13:19;;;;;;;16.75;6.22;;;;;;;15.06;100.00;100289.59;5008377;28;20021;-79
2023/08/06 06:15:47;;;;;;;15.88;6.45;;;;;;;15.07;100.00;100292.13;4999125;28;20152;-79
2023/08/06 06:18:12;;;;;;;18.85;6.72;;;;;;;15.07;100.00;100294.00;4998072;28;20075;-79
2023/08/06 06:20:37;;;;;;;17.05;6.32;;;;;;;15.08;100.00;100301.09;5000504;28;20029;-79
2023/08/06 06:23:03;;;;;;;17.50;5.47;;;;;;;15.08;100.00;100307.38;5000452;28;20105;-79
2023/08/06 06:25:28;;;;;;;17.85;5.63;;;;;;;15.07;100.00;100315.66;5006773;28;20478;-79
2023/08/06 06:27:53;;;;;;;14.50;5.18;;;;;;;15.07;100.00;100318.38;5002418;28;20041;-79
2023/08/06 06:30:18;;;;;;;14.27;4.93;;;;;;;15.05;100.00;100323.06;4999632;28;20528;-79
2023/08/06 06:32:44;;;;;;;14.02;4.22;;;;;;;15.03;100.00;100332.19;5003632;28;20120;-79
2023/08/06 06:35:09;;;;;;;12.82;4.15;;;;;;;15.00;100.00;100323.53;5003858;28;20416;-79
2023/08/06 06:37:35;;;;;;;12.90;4.03;;;;;;;14.96;100.00;100332.97;5003111;28;20081;-79
2023/08/06 06:40:00;;;;;;;9.38;3.22;;;;;;;14.91;100.00;100338.00;5002592;28;20109;-79
2023/08/06 06:42:25;;;;;;;7.32;2.58;;;;;;;14.86;100.00;100343.84;5007389;28;20116;-79
2023/08/06 06:44:51;;;;;;;4.65;2.03;;;;;;;14.77;100.00;100352.88;4994311;28;20409;-79
2023/08/06 06:47:16;;;;;;;3.97;1.90;;;;;;;14.68;100.00;100354.66;5005227;28;20140;-79
2023/08/06 06:49:42;;;;;;;10.00;1.83;;;;;;;14.59;100.00;100355.53;5003334;28;20038;-79
2023/08/06 06:52:07;;;;;;;2.75;1.90;;;;;;;14.56;100.00;100375.59;5000384;28;20042;-79
2023/08/06 06:54:33;;;;;;;4.43;2.05;;;;;;;14.43;100.00;100373.22;5006292;28;20477;-78
2023/08/06 06:56:58;;;;;;;2.15;1.95;;;;;;;14.38;100.00;100369.28;5008282;28;20386;-78
2023/08/06 06:59:24;;;;;;;8.80;3.25;;;;;;;14.32;100.00;100360.78;5006164;28;20025;-78
2023/08/06 07:01:49;;;;;;;9.45;3.08;;;;;;;14.25;100.00;100378.59;5008769;28;20028;-78
2023/08/06 07:04:14;;;;;;;11.27;3.13;;;;;;;14.20;100.00;100370.06;5006277;28;20122;-78
2023/08/06 07:06:39;;;;;;;6.95;2.75;;;;;;;14.14;100.00;100376.06;5005189;28;20033;-79
2023/08/06 07:09:05;;;;;;;9.35;2.95;;;;;;;14.11;100.00;100373.66;5003353;28;20080;-79
2023/08/06 07:11:31;;;;;;;8.95;3.28;;;;;;;14.10;100.00;100374.66;5000537;28;20034;-79
2023/08/06 07:13:58;;;;;;;11.27;3.30;;;;;;;14.07;100.00;100383.91;5006852;28;20032;-79
2023/08/06 07:16:23;;;;;;;10.52;3.38;;;;;;;14.10;100.00;100396.25;5006107;28;20029;-79
2023/08/06 07:18:51;;;;;;;9.00;3.55;;;;;;;14.05;100.00;100402.09;5006964;28;20076;-78
2023/08/06 07:21:16;;;;;;;12.02;4.13;;;;;;;14.04;100.00;100402.25;5011081;28;20038;-80
2023/08/06 07:23:41;;;;;;;15.98;4.97;;;;;;;14.00;100.00;100407.13;5015276;28;20032;-79
2023/08/06 07:26:06;;;;;;;12.57;4.07;;;;;;;13.97;100.00;100405.56;4998125;28;20026;-78
2023/08/06 07:28:32;;;;;;;13.65;4.68;;;;;;;13.96;100.00;100411.94;5011034;28;20478;-79
2023/08/06 07:30:57;;;;;;;11.98;4.13;;;;;;;13.96;100.00;100420.03;5007495;28;20576;-79
2023/08/06 07:33:22;;;;;;;17.80;4.95;;;;;;;13.97;100.00;100410.94;5011753;28;20025;-78
2023/08/06 07:35:48;;;;;;;14.25;4.95;;;;;;;13.94;100.00;100426.63;5011021;28;20030;-79
2023/08/06 07:38:13;;;;;;;14.68;5.13;;;;;;;13.95;100.00;100439.09;5008904;28;20121;-78
2023/08/06 07:40:38;;;;;;;12.80;5.15;;;;;;;13.96;100.00;100430.00;5012764;28;21512;-79
2023/08/06 07:43:04;;;;;;;12.98;4.90;;;;;;;13.98;100.00;100428.88;5014058;28;20480;-79
2023/08/06 07:45:36;;;;;;;17.75;6.30;;;;;;;13.98;100.00;100428.88;5012144;28;20025;-78
2023/08/06 07:48:02;;;;;;;17.92;5.50;;;;;;;14.01;100.00;100441.22;5013099;28;20073;-78
2023/08/06 07:50:28;;;;;;;12.82;4.60;;;;;;;14.01;100.00;100440.38;5011282;28;20064;-78
2023/08/06 07:52:53;;;;;;;15.20;5.60;;;;;;;13.99;100.00;100441.38;5010357;28;20517;-78
2023/08/06 07:55:18;;;;;;;13.65;5.25;;;;;;;14.03;100.00;100441.94;5011895;28;20030;-78
2023/08/06 07:57:43;;;;;;;17.92;5.50;;;;;;;14.06;100.00;100443.50;5011768;28;20100;-78
2023/08/06 08:00:09;;;;;;;14.82;5.32;;;;;;;14.08;100.00;100442.34;5013549;28;20100;-78
2023/08/06 08:02:35;;;;;;;16.88;6.13;;;;;;;14.08;100.00;100447.75;5013336;28;20022;-78
2023/08/06 08:05:00;;;;;;;14.82;5.28;;;;;;;14.10;100.00;100447.59;5009370;28;20105;-78
2023/08/06 08:07:28;;;;;;;13.68;5.10;;;;;;;14.12;100.00;100437.53;5010011;28;20034;-78
2023/08/06 08:09:53;;;;;;;16.95;5.93;;;;;;;14.11;100.00;100443.91;5011920;28;20022;-78
2023/08/06 08:12:19;;;;;;;19.77;5.38;;;;;;;14.15;100.00;100442.63;5011697;28;20036;-78
2023/08/06 08:14:45;;;;;;;15.13;4.78;;;;;;;14.13;100.00;100442.78;5011347;28;20041;-81
2023/08/06 08:17:11;;;;;;;14.88;4.20;;;;;;;14.14;100.00;100444.50;5010945;28;20041;-79
2023/08/06 08:19:36;;;;;;;18.08;5.20;;;;;;;14.11;100.00;100443.91;5011436;28;20038;-78
2023/08/06 08:22:03;;;;;;;18.48;4.38;;;;;;;14.11;100.00;100452.03;5011872;28;20032;-78
2023/08/06 08:24:29;;;;;;;17.48;4.32;;;;;;;14.09;100.00;100451.31;5012360;28;20093;-78
2023/08/06 08:26:54;;;;;;;13.65;4.20;;;;;;;14.08;100.00;100455.84;5036858;28;20028;-78
2023/08/06 08:29:21;;;;;;;14.52;4.55;;;;;;;14.07;100.00;100454.19;5034309;28;20057;-78
2023/08/06 08:31:49;;;;;;;16.98;4.63;;;;;;;14.07;100.00;100462.28;5066988;23;20124;-75
2023/08/06 08:34:16;;;;;;;13.40;3.90;;;;;;;14.08;100.00;100465.81;5048995;28;20054;-75
2023/08/06 08:36:42;;;;;;;16.60;4.55;;;;;;;14.01;100.00;100473.66;5061025;28;20028;-75
2023/08/06 08:39:07;;;;;;;13.20;3.50;;;;;;;14.02;100.00;100478.06;5063052;28;20084;-77
2023/08/06 08:41:33;;;;;;;8.55;3.20;;;;;;;13.98;100.00;100474.81;5056621;28;20026;-75
2023/08/06 08:44:00;;;;;;;16.38;3.92;;;;;;;13.99;100.00;100476.50;5073957;28;20017;-76
2023/08/06 08:46:33;;;;;;;12.25;3.60;;;;;;;13.98;100.00;100485.63;5054454;28;20100;-75
2023/08/06 08:48:59;;;;;;;12.32;3.58;;;;;;;13.96;100.00;100490.28;5059713;28;20025;-76
2023/08/06 08:51:27;;;;;;;13.45;3.88;;;;;;;13.95;100.00;100493.13;5069616;28;20060;-75
2023/08/06 08:53:55;;;;;;;12.02;3.50;;;;;;;13.95;100.00;100499.41;5072401;28;20050;-76
2023/08/06 08:56:20;;;;;;;15.85;4.00;;;;;;;13.95;100.00;100493.13;5062228;28;20187;-76
2023/08/06 08:58:46;;;;;;;16.15;3.80;;;;;;;13.96;100.00;100495.69;5075477;28;20033;-75
2023/08/06 09:01:11;;;;;;;13.43;4.10;;;;;;;13.94;100.00;100503.09;5069106;28;20033;-76
2023/08/06 09:03:38;;;;;;;14.38;3.97;;;;;;;13.93;100.00;100495.16;5071880;28;20109;-77
2023/08/06 09:06:04;;;;;;;15.20;4.03;;;;;;;13.93;100.00;100508.66;5057110;28;20033;-77
2023/08/06 09:08:37;;;;;;;19.48;4.57;;;;;;;13.93;100.00;100506.78;5057258;28;20136;-78
2023/08/06 09:11:04;;;;;;;18.67;4.30;;;;;;;13.96;100.00;100513.75;5046669;28;20021;-75
2023/08/06 09:13:30;;;;;;;17.85;4.10;;;;;;;13.98;100.00;100515.34;5047887;28;20540;-77
2023/08/06 09:15:55;;;;;;;15.25;4.28;;;;;;;13.96;100.00;100520.00;5050145;28;20092;-76
2023/08/06 09:18:27;;;;;;;17.42;4.68;;;;;;;13.97;100.00;100520.88;5045420;28;20384;-76
2023/08/06 09:20:52;;;;;;;16.67;4.72;;;;;;;13.95;100.00;100534.53;5052096;28;20033;-75
2023/08/06 09:23:17;;;;;;;15.15;4.90;;;;;;;13.98;100.00;100527.97;5044971;28;20036;-76
2023/08/06 09:25:43;;;;;;;11.23;4.00;;;;;;;13.95;100.00;100533.66;5052869;28;20033;-76
2023/08/06 09:28:08;;;;;;;18.27;4.95;;;;;;;13.95;100.00;100539.94;5049161;28;20033;-75
2023/08/06 09:30:36;;;;;;;12.93;4.07;;;;;;;13.96;100.00;100543.50;5045985;28;20403;-75
2023/08/06 09:33:02;;;;;;;14.02;4.63;;;;;;;14.01;100.00;100545.75;5048681;28;20084;-76
2023/08/06 09:35:31;;;;;;;14.75;4.53;;;;;;;14.02;100.00;100552.88;5054642;28;20139;-75
2023/08/06 09:38:10;;;;;;;16.63;4.75;;;;;;;14.03;100.00;100552.72;5044239;28;20037;-75
2023/08/06 09:40:36;;;;;;;16.85;4.35;;;;;;;14.03;100.00;100558.13;5035752;28;20086;-75
2023/08/06 09:43:02;;;;;;;12.35;4.60;;;;;;;14.04;100.00;100561.69;5044720;28;20095;-75
2023/08/06 09:45:36;;;;;;;13.82;4.13;;;;;;;14.02;100.00;100561.81;5047869;28;20036;-75
2023/08/06 09:48:09;;;;;;;17.10;4.97;;;;;;;14.07;100.00;100570.38;5041460;28;20029;-76
2023/08/06 09:50:36;;;;;;;12.90;3.67;;;;;;;14.08;100.00;100568.50;5047999;28;20092;-75
2023/08/06 09:53:03;;;;;;;13.20;4.15;;;;;;;14.12;100.00;100573.50;5054730;28;20109;-76
2023/08/06 09:55:28;;;;;;;15.00;4.05;;;;;;;14.15;100.00;100577.75;5056557;28;20116;-76
2023/08/06 09:57:54;;;;;;;13.23;3.88;;;;;;;14.15;100.00;100564.25;5044183;28;20392;-75
2023/08/06 10:00:20;;;;;;;14.82;4.38;;;;;;;14.15;100.00;100578.59;5048039;28;20032;-76
2023/08/06 10:02:48;;;;;;;17.60;4.93;;;;;;;14.20;100.00;100577.31;5046026;28;20370;-77
2023/08/06 10:05:14;;;;;;;16.27;4.85;;;;;;;14.21;100.00;100574.47;5039823;28;20376;-75
2023/08/06 10:07:39;;;;;;;17.90;4.90;;;;;;;14.25;100.00;100581.31;5049892;28;20028;-75
2023/08/06 10:10:06;;;;;;;17.90;4.45;;;;;;;14.28;100.00;100583.72;5046301;28;20170;-75
2023/08/06 10:12:39;;;;;;;13.88;4.43;;;;;;;14.27;100.00;100587.41;5041999;28;20059;-76
2023/08/06 10:15:09;;;;;;;16.33;4.10;;;;;;;14.29;100.00;100590.84;5048921;28;20021;-76
2023/08/06 10:17:36;;;;;;;11.75;3.50;;;;;;;14.28;100.00;100591.84;5046474;28;20033;-75
2023/08/06 10:20:06;;;;;;;17.42;4.65;;;;;;;14.27;100.00;100590.13;5052874;28;20048;-76
2023/08/06 10:22:32;;;;;;;;;;;;;;;14.28;100.00;100589.13;5049109;28;20055;-74
2023/08/06 10:25:04;;;;;;;15.13;4.30;;;;;;;14.24;100.00;100585.00;5050791;28;19988;-75
2023/08/06 10:27:39;;;;;;;15.55;4.30;;;;;;;14.26;100.00;100598.38;5049587;28;20044;-75
2023/08/06 10:30:23;;;;;;;13.20;3.92;;;;;;;14.28;100.00;100591.84;5052059;28;20044;-75
2023/08/06 10:32:50;;;;;;;12.20;3.85;;;;;;;14.30;100.00;100595.25;5049627;28;20495;-78
2023/08/06 10:35:49;;;;;;;11.98;3.97;;;;;;;14.36;100.00;100598.38;5050372;28;20120;-78
2023/08/06 10:38:17;;;;;;;14.53;3.93;;;;;;;14.38;100.00;100599.94;5038853;28;20029;-78
2023/08/06 10:40:53;;;;;;;14.98;4.10;;;;;;;14.43;100.00;100600.34;5053160;28;20025;-78
2023/08/06 10:43:39;;;;;;;14.98;3.92;;;;;;;14.44;100.00;100599.38;5040671;28;20033;-78
2023/08/06 10:46:22;;;;;;;14.50;4.57;;;;;;;14.46;100.00;100600.06;5041224;28;20111;-78
2023/08/06 10:48:47;;;;;;;14.70;4.70;;;;;;;14.54;100.00;100602.06;5050954;28;20025;-78
2023/08/06 10:51:14;;;;;;;16.08;4.88;;;;;;;14.57;100.00;100596.38;5050577;28;20090;-78
2023/08/06 10:53:50;;;;;;;16.95;4.60;;;;;;;14.59;100.00;100605.19;5057029;28;20135;-78
2023/08/06 10:56:17;;;;;;;14.30;4.30;;;;;;;14.63;100.00;100612.03;5046791;28;20029;-78
2023/08/06 10:58:44;;;;;;;15.93;4.07;;;;;;;14.70;100.00;100608.75;5051635;28;20040;-78
2023/08/06 11:01:10;;;;;;;17.85;5.35;;;;;;;14.69;100.00;100613.31;5056377;28;20582;-78
2023/08/06 11:03:36;;;;;;;12.52;4.03;;;;;;;14.71;100.00;100611.31;5059993;28;20053;-78
2023/08/06 11:06:02;;;;;;;15.20;4.28;;;;;;;14.78;100.00;100612.44;5057669;28;20005;-78